createdAt,value
2023-04-12T00:02:30.612Z,100004.42
2023-04-12T00:05:02.989Z,99995.10
2023-04-12T00:07:34.958Z,99999.11
2023-04-12T00:10:09.587Z,100000.40
2023-04-12T00:12:41.918Z,99999.19
2023-04-12T00:15:14.126Z,100003.46
2023-04-12T00:17:47.980Z,100002.02
2023-04-12T00:20:19.912Z,99999.08
2023-04-12T00:22:52.000Z,100003.58
2023-04-12T00:25:24.130Z,100002.06
2023-04-12T00:27:56.199Z,100006.52
2023-04-12T00:30:28.573Z,100004.33
2023-04-12T00:33:00.738Z,99999.21
2023-04-12T00:35:32.580Z,100002.46
2023-04-12T00:38:10.241Z,100000.42
2023-04-12T00:40:45.157Z,99997.72
2023-04-12T00:43:18.827Z,99999.45
2023-04-12T00:45:51.821Z,100001.11
2023-04-12T00:48:23.635Z,100002.59
2023-04-12T00:50:57.686Z,100005.40
2023-04-12T00:53:30.770Z,100005.36
2023-04-12T00:56:03.527Z,100000.39
2023-04-12T00:58:35.293Z,99998.16
2023-04-12T01:01:07.663Z,99998.81
2023-04-12T01:03:43.035Z,99999.22
2023-04-12T01:06:26.988Z,99999.07
2023-04-12T01:09:03.389Z,100000.06
2023-04-12T01:11:39.204Z,99992.09
2023-04-12T01:14:18.775Z,99999.19
2023-04-12T01:16:55.158Z,100004.19
2023-04-12T01:19:53.776Z,100004.96
2023-04-12T01:22:38.425Z,100004.73
2023-04-12T01:25:27.301Z,100004.92
2023-04-12T01:28:03.532Z,100010.10
2023-04-12T01:30:37.547Z,100009.45
2023-04-12T01:33:12.628Z,100008.60
2023-04-12T01:35:45.553Z,100004.51
2023-04-12T01:38:17.588Z,100003.67
2023-04-12T01:40:50.861Z,100002.54
2023-04-12T01:43:23.927Z,99998.20
2023-04-12T01:45:55.774Z,99999.48
2023-04-12T01:48:27.629Z,100003.10
2023-04-12T01:51:13.128Z,100004.54
2023-04-12T01:53:50.377Z,100000.00
2023-04-12T01:56:23.400Z,100003.11
2023-04-12T01:58:57.134Z,100001.89
2023-04-12T02:01:31.014Z,100002.98
2023-04-12T02:04:04.716Z,100001.48
2023-04-12T02:06:37.681Z,100005.41
2023-04-12T02:09:10.137Z,100005.73
2023-04-12T02:11:42.963Z,100003.98
2023-04-12T02:14:13.877Z,100005.41
2023-04-12T02:16:45.694Z,100002.65
2023-04-12T02:19:17.697Z,100004.50
2023-04-12T02:21:49.895Z,99997.84
2023-04-12T02:24:21.761Z,100001.69
2023-04-12T02:26:54.894Z,99998.55
2023-04-12T02:29:27.334Z,99995.79
2023-04-12T02:31:59.023Z,99994.82
2023-04-12T02:34:36.748Z,99999.48
2023-04-12T02:37:24.502Z,99998.81
2023-04-12T02:39:57.079Z,99993.40
2023-04-12T02:42:28.960Z,99991.48
2023-04-12T02:45:01.236Z,99990.18
2023-04-12T02:47:33.331Z,99989.60
2023-04-12T02:50:06.123Z,99983.95
2023-04-12T02:52:40.382Z,99983.61
2023-04-12T02:55:13.937Z,99983.32
2023-04-12T02:57:47.529Z,99985.13
2023-04-12T03:00:20.121Z,99988.11
2023-04-12T03:02:55.238Z,99981.73
2023-04-12T03:05:30.122Z,99985.23
2023-04-12T03:08:02.450Z,99979.55
2023-04-12T03:10:41.565Z,99977.27
2023-04-12T03:13:13.480Z,99974.89
2023-04-12T03:15:50.577Z,99972.23
2023-04-12T03:18:23.539Z,99968.20
2023-04-12T03:20:54.164Z,99961.17
2023-04-12T03:23:25.997Z,99967.39
2023-04-12T03:26:06.179Z,99962.11
2023-04-12T03:28:38.923Z,99958.66
2023-04-12T03:31:12.617Z,99952.83
2023-04-12T03:33:48.860Z,99956.64
2023-04-12T03:36:29.480Z,99951.16
2023-04-12T03:39:06.509Z,99951.66
2023-04-12T03:41:40.694Z,99949.36
2023-04-12T03:44:13.201Z,99955.55
2023-04-12T03:46:45.627Z,99950.94
2023-04-12T03:49:17.662Z,99949.06
2023-04-12T03:51:52.409Z,99950.46
2023-04-12T03:54:24.486Z,99947.39
2023-04-12T03:57:02.122Z,99943.95
2023-04-12T03:59:41.386Z,99947.80
2023-04-12T04:02:13.319Z,99957.12
2023-04-12T04:04:50.479Z,99957.56
2023-04-12T04:07:29.986Z,99961.19
2023-04-12T04:10:02.802Z,99957.04
2023-04-12T04:12:37.884Z,99956.75
2023-04-12T04:15:12.390Z,99955.36
2023-04-12T04:17:47.476Z,99955.70
2023-04-12T04:20:20.402Z,99953.77
2023-04-12T04:22:54.481Z,99949.65
2023-04-12T04:25:30.509Z,99950.05
2023-04-12T04:28:06.177Z,99945.85
2023-04-12T04:30:39.251Z,99943.66
2023-04-12T04:33:12.625Z,99950.30
2023-04-12T04:35:45.368Z,99952.75
2023-04-12T04:38:27.222Z,99954.56
2023-04-12T04:41:05.590Z,99953.39
2023-04-12T04:43:50.380Z,99953.79
2023-04-12T04:46:22.802Z,99956.11
2023-04-12T04:48:55.180Z,99956.13
2023-04-12T04:51:27.551Z,99962.20
2023-04-12T04:53:59.891Z,99960.64
2023-04-12T04:56:32.688Z,99958.41
2023-04-12T04:59:03.270Z,99960.42
2023-04-12T05:01:36.364Z,99968.30
2023-04-12T05:04:08.567Z,99970.82
2023-04-12T05:06:40.604Z,99971.59
2023-04-12T05:09:13.633Z,99969.63
2023-04-12T05:11:51.215Z,99970.32
2023-04-12T05:14:23.393Z,99972.67
2023-04-12T05:16:56.642Z,99965.90
2023-04-12T05:19:29.166Z,99968.25
2023-04-12T05:22:01.874Z,99971.79
2023-04-12T05:24:33.811Z,99971.27
2023-04-12T05:27:09.036Z,99972.98
2023-04-12T05:29:41.785Z,99970.39
2023-04-12T05:32:14.444Z,99969.16
2023-04-12T05:34:46.322Z,99970.48
2023-04-12T05:37:18.354Z,99971.38
2023-04-12T05:39:50.445Z,99968.84
2023-04-12T05:42:23.304Z,99968.73
2023-04-12T05:44:56.412Z,99965.11
2023-04-12T05:47:29.020Z,99962.13
2023-04-12T05:50:01.418Z,99959.65
2023-04-12T05:52:32.353Z,99953.42
2023-04-12T05:55:05.129Z,99953.61
2023-04-12T05:57:37.728Z,99955.66
2023-04-12T06:00:17.556Z,99950.54
2023-04-12T06:02:50.496Z,99956.27
2023-04-12T06:05:23.434Z,99957.45
2023-04-12T06:07:55.378Z,99959.50
2023-04-12T06:10:27.153Z,99957.58
2023-04-12T06:12:58.937Z,99953.95
2023-04-12T06:15:32.158Z,99951.90
2023-04-12T06:18:02.609Z,99946.05
2023-04-12T06:20:34.587Z,99947.95
2023-04-12T06:23:06.791Z,99944.98
2023-04-12T06:25:39.785Z,99936.90
2023-04-12T06:28:10.436Z,99934.63
2023-04-12T06:30:48.512Z,99929.93
2023-04-12T06:33:22.459Z,99931.73
2023-04-12T06:35:54.934Z,99932.55
2023-04-12T06:38:26.411Z,99934.20
2023-04-12T06:40:58.835Z,99935.02
2023-04-12T06:43:30.618Z,99939.56
2023-04-12T06:46:03.373Z,99934.86
2023-04-12T06:48:33.652Z,99929.91
2023-04-12T06:51:05.616Z,99932.18
2023-04-12T06:53:39.165Z,99930.93
2023-04-12T06:56:11.724Z,99929.61
2023-04-12T06:58:43.553Z,99928.33
2023-04-12T07:01:15.297Z,99923.82
2023-04-12T07:03:47.291Z,99928.80
2023-04-12T07:06:25.586Z,99933.48
2023-04-12T07:08:58.699Z,99929.66
2023-04-12T07:11:31.720Z,99926.46
2023-04-12T07:14:03.491Z,99922.00
2023-04-12T07:16:35.339Z,99923.39
2023-04-12T07:19:07.450Z,99922.80
2023-04-12T07:21:39.178Z,99921.90
2023-04-12T07:24:11.322Z,99907.91
2023-04-12T07:26:43.275Z,99904.59
2023-04-12T07:29:17.013Z,99910.63
2023-04-12T07:31:48.936Z,99911.52
2023-04-12T07:34:21.194Z,99907.56
2023-04-12T07:36:53.260Z,99904.55
2023-04-12T07:39:25.248Z,99901.21
2023-04-12T07:41:57.201Z,99898.15
2023-04-12T07:44:29.027Z,99895.13
2023-04-12T07:47:01.230Z,99892.85
2023-04-12T07:49:33.190Z,99885.89
2023-04-12T07:52:05.280Z,99879.70
2023-04-12T07:54:37.181Z,99879.48
2023-04-12T07:57:09.967Z,99883.41
2023-04-12T07:59:40.436Z,99894.05
2023-04-12T08:02:12.829Z,99892.18
2023-04-12T08:04:45.670Z,99894.10
2023-04-12T08:07:15.969Z,99897.43
2023-04-12T08:09:48.207Z,99894.30
2023-04-12T08:12:21.244Z,99898.84
2023-04-12T08:14:53.060Z,99895.77
2023-04-12T08:17:27.556Z,99893.27
2023-04-12T08:19:59.326Z,99888.63
2023-04-12T08:22:31.440Z,99890.98
2023-04-12T08:25:03.204Z,99890.68
2023-04-12T08:27:35.066Z,99886.98
2023-04-12T08:30:08.841Z,99887.20
2023-04-12T08:32:41.576Z,99891.30
2023-04-12T08:35:12.104Z,99888.28
2023-04-12T08:37:44.659Z,99890.56
2023-04-12T08:40:17.596Z,99884.27
2023-04-12T08:42:47.798Z,99879.80
2023-04-12T08:45:19.693Z,99878.60
2023-04-12T08:47:52.025Z,99870.94
2023-04-12T08:50:25.893Z,99871.59
2023-04-12T08:52:59.021Z,99874.08
2023-04-12T08:55:30.925Z,99870.35
2023-04-12T08:58:07.434Z,99868.33
2023-04-12T09:00:40.078Z,99865.75
2023-04-12T09:03:12.269Z,99864.08
2023-04-12T09:05:44.487Z,99862.02
2023-04-12T09:08:17.434Z,99859.85
2023-04-12T09:10:49.224Z,99858.83
2023-04-12T09:13:34.484Z,99857.78
2023-04-12T09:16:06.957Z,99858.91
2023-04-12T09:18:51.203Z,99854.73
2023-04-12T09:21:23.340Z,99853.58
2023-04-12T09:24:11.665Z,99849.16
2023-04-12T09:26:44.550Z,99843.49
2023-04-12T09:29:26.476Z,99840.61
2023-04-12T09:32:02.162Z,99838.44
2023-04-12T09:34:36.051Z,99838.44
2023-04-12T09:37:17.431Z,99837.21
2023-04-12T09:39:49.965Z,99834.69
2023-04-12T09:44:58.142Z,99825.57
2023-04-12T09:47:41.673Z,99823.71
2023-04-12T09:50:23.231Z,99823.63
2023-04-12T09:52:56.425Z,99818.84
2023-04-12T09:55:30.055Z,99815.88
2023-04-12T09:58:05.570Z,99812.25
2023-04-12T10:00:38.933Z,99807.91
2023-04-12T10:03:11.531Z,99807.60
2023-04-12T10:05:44.301Z,99804.07
2023-04-12T10:08:17.898Z,99799.85
2023-04-12T10:10:50.846Z,99800.80
2023-04-12T10:13:25.931Z,99795.80
2023-04-12T10:15:58.059Z,99797.21
2023-04-12T10:18:31.094Z,99791.49
2023-04-12T10:21:04.622Z,99790.56
2023-04-12T10:23:36.905Z,99785.48
2023-04-12T10:26:09.246Z,99780.64
2023-04-12T10:28:41.758Z,99774.42
2023-04-12T10:31:34.210Z,99777.46
2023-04-12T10:34:06.921Z,99776.15
2023-04-12T10:37:00.270Z,99774.27
2023-04-12T10:39:40.538Z,99771.66
2023-04-12T10:42:25.218Z,99773.67
2023-04-12T10:45:00.995Z,99768.15
2023-04-12T10:48:01.819Z,99768.19
2023-04-12T10:50:35.436Z,99764.70
2023-04-12T10:53:26.444Z,99766.14
2023-04-12T10:55:58.567Z,99762.98
2023-04-12T10:58:59.572Z,99762.11
2023-04-12T11:01:38.351Z,99762.38
2023-04-12T11:04:17.228Z,99754.77
2023-04-12T11:07:09.731Z,99755.79
2023-04-12T11:09:46.995Z,99754.05
2023-04-12T11:12:30.097Z,99751.80
2023-04-12T11:15:06.274Z,99746.31
2023-04-12T11:17:57.913Z,99743.08
2023-04-12T11:20:29.945Z,99746.06
2023-04-12T11:23:06.004Z,99744.41
2023-04-12T11:25:38.955Z,99741.39
2023-04-12T11:28:27.863Z,99739.74
2023-04-12T11:31:02.083Z,99738.77
2023-04-12T11:33:38.287Z,99736.63
2023-04-12T11:36:13.342Z,99734.51
2023-04-12T11:38:46.381Z,99730.46
2023-04-12T11:41:21.751Z,99728.16
2023-04-12T11:43:57.005Z,99726.89
2023-04-12T11:46:34.322Z,99721.75
2023-04-12T11:49:06.651Z,99719.35
2023-04-12T11:51:38.673Z,99715.95
2023-04-12T11:54:11.372Z,99716.83
2023-04-12T11:56:42.557Z,99715.02
2023-04-12T11:59:14.734Z,99711.11
2023-04-12T12:01:47.307Z,99707.90
2023-04-12T12:04:19.754Z,99704.27
2023-04-12T12:06:53.144Z,99694.99
2023-04-12T12:09:26.127Z,99695.40
2023-04-12T12:11:57.140Z,99689.77
2023-04-12T12:14:32.389Z,99687.56
2023-04-12T12:17:11.251Z,99684.91
2023-04-12T12:19:44.470Z,99679.10
2023-04-12T12:22:18.904Z,99672.85
2023-04-12T12:24:55.957Z,99664.81
2023-04-12T12:27:37.547Z,99662.03
2023-04-12T12:30:13.317Z,99662.17
2023-04-12T12:32:45.980Z,99649.99
2023-04-12T12:35:16.664Z,99647.13
2023-04-12T12:37:55.838Z,99649.97
2023-04-12T12:40:33.702Z,99644.59
2023-04-12T12:43:06.998Z,99637.36
2023-04-12T12:45:40.706Z,99634.86
2023-04-12T12:48:13.255Z,99630.60
2023-04-12T12:50:47.071Z,99629.63
2023-04-12T12:53:19.145Z,99632.39
2023-04-12T12:55:51.495Z,99633.53
2023-04-12T12:58:23.733Z,99632.00
2023-04-12T13:00:56.167Z,99628.37
2023-04-12T13:03:28.419Z,99625.88
2023-04-12T13:06:01.091Z,99617.38
2023-04-12T13:08:36.700Z,99616.93
2023-04-12T13:11:09.728Z,99613.40
2023-04-12T13:13:41.560Z,99609.80
2023-04-12T13:16:13.566Z,99611.53
2023-04-12T13:18:47.196Z,99602.61
2023-04-12T13:21:19.362Z,99596.47
2023-04-12T13:23:51.509Z,99594.18
2023-04-12T13:26:25.653Z,99589.90
2023-04-12T13:28:58.066Z,99593.96
2023-04-12T13:31:30.547Z,99589.20
2023-04-12T13:34:02.906Z,99589.47
2023-04-12T13:36:35.033Z,99584.80
2023-04-12T13:39:07.107Z,99579.54
2023-04-12T13:41:39.121Z,99570.60
2023-04-12T13:44:11.498Z,99568.98
2023-04-12T13:46:43.976Z,99563.57
2023-04-12T13:49:16.022Z,99558.19
2023-04-12T13:51:48.027Z,99555.64
2023-04-12T13:54:20.347Z,99555.81
2023-04-12T13:56:52.378Z,99555.61
2023-04-12T13:59:24.130Z,99554.17
2023-04-12T14:01:56.620Z,99548.80
2023-04-12T14:04:30.042Z,99548.98
2023-04-12T14:07:02.822Z,99544.91
2023-04-12T14:09:35.117Z,99544.08
2023-04-12T14:12:07.178Z,99544.09
2023-04-12T14:14:39.582Z,99537.14
2023-04-12T14:17:10.328Z,99530.18
2023-04-12T14:19:42.649Z,99527.32
2023-04-12T14:22:14.640Z,99537.49
2023-04-12T14:24:46.691Z,99535.40
2023-04-12T14:27:18.620Z,99537.38
2023-04-12T14:29:50.478Z,99540.42
2023-04-12T14:32:22.816Z,99539.21
2023-04-12T14:34:55.116Z,99534.95
2023-04-12T14:37:27.592Z,99536.91
2023-04-12T14:39:59.904Z,99537.72
2023-04-12T14:42:31.837Z,99538.43
2023-04-12T14:45:05.527Z,99534.95
2023-04-12T14:47:37.741Z,99532.59
2023-04-12T14:50:11.372Z,99525.90
2023-04-12T14:52:43.301Z,99521.25
2023-04-12T14:55:16.826Z,99524.13
2023-04-12T14:57:48.878Z,99518.19
2023-04-12T15:00:22.411Z,99515.24
2023-04-12T15:02:55.349Z,99512.13
2023-04-12T15:05:27.535Z,99509.51
2023-04-12T15:07:59.490Z,99507.95
2023-04-12T15:10:31.773Z,99507.05
2023-04-12T15:13:03.753Z,99507.55
2023-04-12T15:15:35.801Z,99501.90
2023-04-12T15:18:07.910Z,99501.20
2023-04-12T15:20:39.910Z,99498.93
2023-04-12T15:23:12.342Z,99492.98
2023-04-12T15:25:45.243Z,99489.30
2023-04-12T15:28:17.147Z,99489.20
2023-04-12T15:30:50.012Z,99487.39
2023-04-12T15:33:22.356Z,99484.35
2023-04-12T15:35:57.692Z,99483.45
2023-04-12T15:38:30.506Z,99483.46
2023-04-12T15:41:04.041Z,99477.58
2023-04-12T15:43:36.581Z,99481.41
2023-04-12T15:46:09.190Z,99473.44
2023-04-12T15:48:39.838Z,99471.05
2023-04-12T15:51:12.791Z,99471.55
2023-04-12T15:53:44.650Z,99467.23
2023-04-12T15:56:20.137Z,99462.66
2023-04-12T15:58:52.260Z,99458.81
2023-04-12T16:01:24.153Z,99463.58
2023-04-12T16:03:56.388Z,99461.58
2023-04-12T16:06:30.508Z,99459.83
2023-04-12T16:09:05.118Z,99455.95
2023-04-12T16:11:37.293Z,99450.54
2023-04-12T16:14:09.327Z,99443.01
2023-04-12T16:16:42.172Z,99449.52
2023-04-12T16:19:14.488Z,99444.83
2023-04-12T16:21:46.416Z,99439.15
2023-04-12T16:24:18.760Z,99439.36
2023-04-12T16:26:50.743Z,99432.30
2023-04-12T16:29:23.168Z,99429.38
2023-04-12T16:31:55.067Z,99432.38
2023-04-12T16:34:27.195Z,99432.98
2023-04-12T16:36:59.360Z,99434.48
2023-04-12T16:39:32.288Z,99430.36
2023-04-12T16:42:06.250Z,99432.36
2023-04-12T16:44:38.768Z,99427.76
2023-04-12T16:47:11.419Z,99426.11
2023-04-12T16:49:43.544Z,99428.84
2023-04-12T16:52:15.513Z,99427.47
2023-04-12T16:54:47.545Z,99428.52
2023-04-12T16:57:19.695Z,99426.77
2023-04-12T16:59:52.098Z,99422.17
2023-04-12T17:02:25.091Z,99422.89
2023-04-12T17:04:57.776Z,99427.67
2023-04-12T17:07:30.370Z,99422.44
2023-04-12T17:10:02.408Z,99421.54
2023-04-12T17:12:34.554Z,99420.14
2023-04-12T17:15:10.468Z,99421.18
2023-04-12T17:17:43.409Z,99417.36
2023-04-12T17:20:16.312Z,99417.02
2023-04-12T17:22:47.560Z,99408.27
2023-04-12T17:25:25.666Z,99406.93
2023-04-12T17:28:00.235Z,99408.48
2023-04-12T17:30:32.798Z,99407.11
2023-04-12T17:33:07.588Z,99405.49
2023-04-12T17:35:40.495Z,99411.02
2023-04-12T17:38:10.908Z,99410.23
2023-04-12T17:40:43.021Z,99414.45
2023-04-12T17:43:14.935Z,99412.84
2023-04-12T17:45:46.870Z,99411.72
2023-04-12T17:48:19.599Z,99413.65
2023-04-12T17:50:50.337Z,99413.48
2023-04-12T17:53:22.712Z,99414.48
2023-04-12T17:55:54.695Z,99421.86
2023-04-12T17:58:27.878Z,99422.82
2023-04-12T18:01:00.643Z,99413.40
2023-04-12T18:03:34.300Z,99414.89
2023-04-12T18:06:06.976Z,99412.48
2023-04-12T18:08:39.439Z,99413.60
2023-04-12T18:11:13.073Z,99413.27
2023-04-12T18:13:45.146Z,99420.46
2023-04-12T18:16:17.443Z,99423.60
2023-04-12T18:18:50.844Z,99423.77
2023-04-12T18:21:23.131Z,99424.30
2023-04-12T18:23:55.363Z,99420.27
2023-04-12T18:26:27.985Z,99418.64
2023-04-12T18:29:00.687Z,99416.31
2023-04-12T18:31:33.577Z,99417.08
2023-04-12T18:34:05.999Z,99412.64
2023-04-12T18:36:38.469Z,99416.45
2023-04-12T18:39:11.105Z,99419.66
2023-04-12T18:41:43.454Z,99418.35
2023-04-12T18:44:17.238Z,99416.64
2023-04-12T18:46:49.156Z,99418.38
2023-04-12T18:49:22.034Z,99417.02
2023-04-12T18:51:58.278Z,99412.83
2023-04-12T18:54:30.723Z,99411.84
2023-04-12T18:57:03.639Z,99410.42
2023-04-12T18:59:36.151Z,99413.73
2023-04-12T19:02:09.446Z,99410.55
2023-04-12T19:04:42.114Z,99407.28
2023-04-12T19:07:15.347Z,99409.39
2023-04-12T19:09:48.044Z,99408.88
2023-04-12T19:12:21.420Z,99407.54
2023-04-12T19:14:53.367Z,99410.73
2023-04-12T19:17:27.852Z,99410.12
2023-04-12T19:20:00.201Z,99406.71
2023-04-12T19:22:32.402Z,99406.77
2023-04-12T19:25:05.204Z,99406.46
2023-04-12T19:27:37.538Z,99403.00
2023-04-12T19:30:13.074Z,99408.89
2023-04-12T19:32:45.534Z,99408.61
2023-04-12T19:35:17.940Z,99405.33
2023-04-12T19:37:50.307Z,99404.85
2023-04-12T19:40:22.676Z,99400.83
2023-04-12T19:42:55.000Z,99398.90
2023-04-12T19:45:28.001Z,99398.23
2023-04-12T19:48:00.206Z,99396.93
2023-04-12T19:50:32.638Z,99399.89
2023-04-12T19:53:06.233Z,99395.98
2023-04-12T19:55:39.296Z,99394.39
2023-04-12T19:58:13.809Z,99392.15
2023-04-12T20:00:51.790Z,99393.57
2023-04-12T20:03:23.937Z,99392.08
2023-04-12T20:05:58.046Z,99386.70
2023-04-12T20:08:29.896Z,99383.23
2023-04-12T20:11:02.516Z,99378.65
2023-04-12T20:13:36.200Z,99377.35
2023-04-12T20:16:10.068Z,99370.23
2023-04-12T20:18:42.043Z,99366.69
2023-04-12T20:21:13.797Z,99362.57
2023-04-12T20:23:47.107Z,99364.27
2023-04-12T20:26:20.556Z,99360.44
2023-04-12T20:28:53.091Z,99360.80
2023-04-12T20:31:25.968Z,99356.84
2023-04-12T20:33:57.237Z,99359.68
2023-04-12T20:36:30.119Z,99353.27
2023-04-12T20:39:02.488Z,99352.15
2023-04-12T20:41:38.207Z,99354.98
2023-04-12T20:44:10.039Z,99353.27
2023-04-12T20:46:41.873Z,99357.47
2023-04-12T20:49:14.607Z,99360.52
2023-04-12T20:51:46.802Z,99355.62
2023-04-12T20:54:18.573Z,99353.54
2023-04-12T20:56:50.354Z,99354.85
2023-04-12T20:59:22.891Z,99348.34
2023-04-12T21:01:54.833Z,99347.41
2023-04-12T21:04:27.810Z,99346.21
2023-04-12T21:06:59.684Z,99344.55
2023-04-12T21:09:32.673Z,99343.09
2023-04-12T21:12:08.545Z,99340.05
2023-04-12T21:14:40.364Z,99339.66
2023-04-12T21:17:13.117Z,99335.56
2023-04-12T21:19:44.956Z,99331.83
2023-04-12T21:22:17.129Z,99332.98
2023-04-12T21:24:50.075Z,99327.23
2023-04-12T21:27:22.082Z,99324.48
2023-04-12T21:29:53.841Z,99323.67
2023-04-12T21:32:26.325Z,99313.61
2023-04-12T21:34:59.011Z,99313.94
2023-04-12T21:37:31.228Z,99308.30
2023-04-12T21:40:07.617Z,99303.55
2023-04-12T21:42:40.423Z,99297.70
2023-04-12T21:45:13.037Z,99287.36
2023-04-12T21:47:45.357Z,99281.98
2023-04-12T21:50:17.109Z,99279.20
2023-04-12T21:52:48.871Z,99281.35
2023-04-12T21:55:21.272Z,99280.14
2023-04-12T21:57:53.335Z,99269.92
2023-04-12T22:00:27.226Z,99276.05
2023-04-12T22:02:59.976Z,99278.63
2023-04-12T22:05:31.996Z,99276.30
2023-04-12T22:08:03.753Z,99279.33
2023-04-12T22:10:35.767Z,99279.42
2023-04-12T22:13:09.911Z,99278.77
2023-04-12T22:15:42.222Z,99272.38
2023-04-12T22:18:14.113Z,99265.91
2023-04-12T22:20:46.481Z,99264.27
2023-04-12T22:23:19.327Z,99268.66
2023-04-12T22:25:51.076Z,99266.95
2023-04-12T22:28:22.911Z,99267.92
2023-04-12T22:30:57.021Z,99271.44
2023-04-12T22:33:29.926Z,99268.09
2023-04-12T22:36:02.082Z,99262.10
2023-04-12T22:38:35.190Z,99257.88
2023-04-12T22:41:07.672Z,99265.90
2023-04-12T22:43:42.138Z,99273.13
2023-04-12T22:46:16.573Z,99278.98
2023-04-12T22:48:49.198Z,99279.75
2023-04-12T22:51:21.078Z,99286.52
2023-04-12T22:53:52.894Z,99285.95
2023-04-12T22:56:25.537Z,99283.95
2023-04-12T22:58:56.041Z,99286.95
2023-04-12T23:01:29.267Z,99286.13
2023-04-12T23:04:02.524Z,99280.63
2023-04-12T23:06:34.347Z,99277.34
2023-04-12T23:09:06.512Z,99280.33
2023-04-12T23:11:39.728Z,99274.39
2023-04-12T23:14:12.984Z,99268.42
2023-04-12T23:16:46.157Z,99261.88
2023-04-12T23:19:18.255Z,99254.17
2023-04-12T23:21:50.037Z,99247.78
2023-04-12T23:24:21.777Z,99241.02
2023-04-12T23:26:53.558Z,99236.37
2023-04-12T23:29:25.958Z,99235.13
2023-04-12T23:31:58.222Z,99235.05
2023-04-12T23:34:30.733Z,99235.06
2023-04-12T23:37:02.520Z,99234.14
2023-04-12T23:39:35.246Z,99224.81
2023-04-12T23:42:07.184Z,99219.15
2023-04-12T23:44:38.974Z,99216.10
2023-04-12T23:47:10.701Z,99209.21
2023-04-12T23:49:42.532Z,99199.88
2023-04-12T23:52:14.607Z,99195.83
2023-04-12T23:54:46.414Z,99184.17
2023-04-12T23:57:18.269Z,99180.02
2023-04-12T23:59:50.222Z,99175.23
